Time;durP1;ratioP1;P1;durP2;ratioP2;P2;SDS_P1;SDS_P2;PMS_P1;PMS_P2;Temp;Humidity;BMP_temperature;BMP_pressure;BME280_temperature;BME280_humidity;BME280_pressure;Samples;Min_cycle;Max_cycle;Signal;HPM_P1;HPM_P2
2022/08/04 00:00:09;;;;;;;21.23;5.00;;;19.90;99.90;;;;;;4704218;30;20059;-92
2022/08/04 00:03:08;;;;;;;17.67;5.03;;;19.90;99.90;;;;;;4702997;30;20374;-94
2022/08/04 00:06:15;;;;;;;12.07;4.45;;;20.30;99.90;;;;;;4718759;30;20079;-93
2022/08/04 00:09:24;;;;;;;16.58;4.88;;;19.90;99.90;;;;;;4704708;30;20056;-93
2022/08/04 00:12:16;;;;;;;16.25;4.60;;;19.90;99.90;;;;;;4721003;30;20413;-93
2022/08/04 00:18:33;;;;;;;21.63;5.30;;;20.00;99.90;;;;;;4751376;30;20055;-93
2022/08/04 00:21:27;;;;;;;14.55;5.30;;;19.90;99.90;;;;;;4734866;30;20071;-93
2022/08/04 00:24:56;;;;;;;19.02;5.85;;;19.90;99.90;;;;;;4731468;30;20064;-93
2022/08/04 00:27:40;;;;;;;19.83;5.20;;;19.90;99.90;;;;;;4713930;30;20064;-94
2022/08/04 00:30:30;;;;;;;28.58;6.18;;;19.90;99.90;;;;;;4737161;30;20146;-94
2022/08/04 00:33:42;;;;;;;15.20;5.25;;;19.90;99.90;;;;;;4753641;30;20099;-96
2022/08/04 00:36:28;;;;;;;26.70;6.10;;;20.00;99.90;;;;;;4767951;30;20067;-93
2022/08/04 00:39:21;;;;;;;25.73;6.32;;;20.00;99.90;;;;;;4738686;30;20051;-94
2022/08/04 00:46:23;;;;;;;30.10;7.18;;;20.00;99.90;;;;;;4723936;30;20516;-93
2022/08/04 00:52:32;;;;;;;25.40;8.02;;;20.00;99.90;;;;;;4677271;30;20051;-94
2022/08/04 00:55:35;;;;;;;20.08;7.45;;;20.00;99.90;;;;;;4737883;30;20071;-93
2022/08/04 00:58:33;;;;;;;19.70;7.37;;;20.00;99.90;;;;;;4737564;30;20052;-93
2022/08/04 01:01:31;;;;;;;23.02;7.45;;;20.00;99.90;;;;;;4732773;30;20290;-94
2022/08/04 01:04:28;;;;;;;;;;;;;;;;;;;;;
2022/08/04 01:07:28;;;;;;;15.70;6.65;;;19.90;99.90;;;;;;4736804;30;20052;-93
2022/08/04 01:10:25;;;;;;;23.38;7.45;;;20.00;99.90;;;;;;4722411;30;20126;-93
2022/08/04 01:13:28;;;;;;;23.77;7.75;;;19.90;99.90;;;;;;4721127;30;20564;-93
2022/08/04 01:16:04;;;;;;;26.23;7.63;;;19.80;99.90;;;;;;4720168;30;20420;-93
2022/08/04 01:19:04;;;;;;;26.38;8.60;;;19.80;99.90;;;;;;4713557;30;20072;-93
2022/08/04 01:22:06;;;;;;;27.55;8.73;;;19.90;99.90;;;;;;4734779;30;20123;-93
2022/08/04 01:28:26;;;;;;;;;;;;;;;;;;;;;
2022/08/04 01:31:39;;;;;;;;;;;;;;;;;;;;;
2022/08/04 01:34:30;;;;;;;18.25;8.45;;;19.60;99.90;;;;;;4748491;30;20054;-93
2022/08/04 01:37:49;;;;;;;22.80;8.77;;;19.70;99.90;;;;;;4748762;30;20516;-93
2022/08/04 01:40:58;;;;;;;15.02;7.28;;;19.80;99.90;;;;;;4719812;30;20447;-93
2022/08/04 01:44:00;;;;;;;17.85;7.70;;;19.70;99.90;;;;;;4709691;30;20060;-93
2022/08/04 01:47:19;;;;;;;21.60;7.67;;;19.60;99.90;;;;;;4696219;30;20075;-93
2022/08/04 01:50:02;;;;;;;17.38;7.85;;;19.60;99.90;;;;;;4731317;30;20052;-94
2022/08/04 01:52:38;;;;;;;30.70;7.85;;;19.50;99.90;;;;;;4731996;30;20414;-93
2022/08/04 01:55:18;;;;;;;19.25;7.20;;;19.50;99.90;;;;;;4718033;30;20134;-94
2022/08/04 01:58:02;;;;;;;24.80;7.13;;;19.50;99.90;;;;;;4734106;30;20068;-93
2022/08/04 02:00:57;;;;;;;20.95;7.90;;;19.50;99.90;;;;;;4732384;30;20497;-93
2022/08/04 02:03:57;;;;;;;23.00;7.85;;;19.50;99.90;;;;;;4724456;30;20398;-93
2022/08/04 02:07:25;;;;;;;14.65;6.75;;;19.50;99.90;;;;;;4722952;30;20064;-93
2022/08/04 02:17:05;;;;;;;20.75;8.07;;;19.40;99.90;;;;;;4721525;30;20506;-93
2022/08/04 02:19:59;;;;;;;18.50;7.68;;;19.30;99.90;;;;;;4719249;30;20044;-93
2022/08/04 02:23:59;;;;;;;23.77;8.15;;;19.40;99.90;;;;;;4718396;30;20088;-93
2022/08/04 02:26:30;;;;;;;25.55;8.60;;;19.40;99.90;;;;;;4708541;30;20053;-92
2022/08/04 02:30:19;;;;;;;24.77;8.50;;;19.40;99.90;;;;;;4717785;30;20399;-93
2022/08/04 02:35:48;;;;;;;24.30;8.45;;;19.40;99.90;;;;;;4689826;30;20419;-92
2022/08/04 02:38:48;;;;;;;21.25;7.35;;;19.30;99.90;;;;;;4718627;30;20052;-93
2022/08/04 02:42:20;;;;;;;22.92;9.30;;;19.20;99.90;;;;;;4718653;30;20529;-93
2022/08/04 02:44:49;;;;;;;25.48;9.82;;;19.30;99.90;;;;;;4708203;30;20098;-94
2022/08/04 02:47:26;;;;;;;19.83;7.82;;;19.30;99.90;;;;;;4717680;30;20059;-94
2022/08/04 02:50:29;;;;;;;23.15;8.07;;;19.30;99.90;;;;;;4718065;30;20056;-93
2022/08/04 02:53:14;;;;;;;;;;;19.40;99.90;;;;;;4733936;30;20409;-93
2022/08/04 02:58:54;;;;;;;25.73;8.43;;;19.30;99.90;;;;;;4688222;30;20067;-93
2022/08/04 03:02:10;;;;;;;20.35;7.50;;;19.30;99.90;;;;;;4733222;30;20055;-94
2022/08/04 03:04:50;;;;;;;14.00;8.00;;;19.20;99.90;;;;;;4740833;30;20055;-93
2022/08/04 03:07:43;;;;;;;18.13;7.15;;;19.20;99.90;;;;;;4738798;30;20059;-93
2022/08/04 03:10:46;;;;;;;17.02;6.93;;;19.40;99.90;;;;;;4739300;30;20091;-93
2022/08/04 03:14:05;;;;;;;16.95;6.30;;;19.20;99.90;;;;;;4741239;30;20378;-92
2022/08/04 03:16:49;;;;;;;;;;;19.20;99.90;;;;;;4739462;30;20056;-93
2022/08/04 03:19:58;;;;;;;20.25;7.47;;;19.10;99.90;;;;;;4738702;30;19932;-93
2022/08/04 03:23:13;;;;;;;12.98;6.63;;;19.10;99.90;;;;;;4708345;30;20064;-93
2022/08/04 03:26:29;;;;;;;17.30;6.93;;;19.00;99.90;;;;;;4731892;30;20499;-93
2022/08/04 03:30:20;;;;;;;18.25;6.70;;;18.90;99.90;;;;;;4739945;30;20103;-93
2022/08/04 03:33:22;;;;;;;;;;;;;;;;;;;;;
2022/08/04 03:36:38;;;;;;;19.63;7.35;;;18.90;99.90;;;;;;4751030;30;20055;-92
2022/08/04 03:40:26;;;;;;;16.15;6.97;;;18.90;99.90;;;;;;4769039;30;20071;-92
2022/08/04 03:43:02;;;;;;;17.20;6.88;;;18.80;99.90;;;;;;4747035;30;20147;-93
2022/08/04 03:46:20;;;;;;;;;;;;;;;;;;;;;
2022/08/04 03:49:07;;;;;;;16.30;6.60;;;18.80;99.90;;;;;;4753428;30;20063;-94
2022/08/04 03:55:46;;;;;;;12.30;5.70;;;18.70;99.90;;;;;;4753100;30;20056;-93
2022/08/04 03:58:49;;;;;;;14.23;5.70;;;18.70;99.90;;;;;;4754486;30;20063;-93
2022/08/04 04:01:53;;;;;;;11.95;5.53;;;18.70;99.90;;;;;;4739654;30;20051;-94
2022/08/04 04:04:46;;;;;;;20.50;6.38;;;18.60;99.90;;;;;;4772484;24;20161;-91
2022/08/04 04:07:57;;;;;;;13.98;6.15;;;18.60;99.90;;;;;;4719076;30;20061;-91
2022/08/04 04:10:56;;;;;;;18.20;7.72;;;18.60;99.90;;;;;;4718325;30;20067;-90
2022/08/04 04:13:53;;;;;;;15.50;5.68;;;18.60;99.90;;;;;;4718461;30;20060;-90
2022/08/04 04:17:04;;;;;;;19.40;7.30;;;18.70;99.90;;;;;;4719005;30;20490;-89
2022/08/04 04:20:00;;;;;;;17.92;7.60;;;18.70;99.90;;;;;;4702475;30;20086;-90
2022/08/04 04:22:47;;;;;;;16.45;5.97;;;18.70;99.90;;;;;;4718655;30;20052;-90
2022/08/04 04:25:27;;;;;;;12.85;6.97;;;18.70;99.90;;;;;;4704420;30;20469;-90
2022/08/04 04:28:19;;;;;;;17.15;6.60;;;18.70;99.90;;;;;;4719054;30;20052;-90
2022/08/04 04:31:18;;;;;;;14.13;6.93;;;18.70;99.90;;;;;;4718742;30;20139;-90
2022/08/04 04:34:01;;;;;;;14.07;8.23;;;18.80;99.90;;;;;;4718905;30;20136;-90
2022/08/04 04:36:39;;;;;;;;;;;18.80;99.90;;;;;;4718869;30;20053;-90
2022/08/04 04:39:30;;;;;;;16.85;7.03;;;18.90;99.90;;;;;;4733449;30;20400;-90
2022/08/04 04:42:16;;;;;;;16.25;6.75;;;18.90;99.90;;;;;;4718596;30;20056;-89
2022/08/04 04:44:59;;;;;;;13.57;6.38;;;18.90;99.90;;;;;;4704306;30;20418;-90
2022/08/04 04:47:45;;;;;;;15.75;6.40;;;18.90;99.90;;;;;;4704263;30;20114;-90
2022/08/04 04:50:29;;;;;;;12.45;5.78;;;19.00;99.90;;;;;;4718180;30;20124;-90
2022/08/04 04:53:16;;;;;;;12.00;5.80;;;19.00;99.90;;;;;;4718486;30;20055;-90
2022/08/04 04:55:49;;;;;;;11.57;6.00;;;19.10;99.90;;;;;;4704062;30;20560;-90
2022/08/04 04:58:18;;;;;;;15.43;6.28;;;19.00;99.90;;;;;;4717964;30;20048;-90
2022/08/04 05:00:45;;;;;;;15.63;6.45;;;19.10;99.90;;;;;;4703881;30;20498;-90
2022/08/04 05:03:42;;;;;;;17.00;6.95;;;19.20;99.90;;;;;;4717523;30;20194;-89
2022/08/04 05:06:45;;;;;;;14.80;7.53;;;19.30;99.90;;;;;;4718426;30;20151;-90
2022/08/04 05:09:29;;;;;;;21.40;7.30;;;19.30;99.90;;;;;;4717746;30;20056;-90
2022/08/04 05:12:16;;;;;;;14.55;8.13;;;19.40;99.90;;;;;;4718111;30;20056;-90
2022/08/04 05:14:48;;;;;;;22.50;7.95;;;19.50;99.90;;;;;;4703590;30;20177;-90
2022/08/04 05:17:34;;;;;;;19.25;8.30;;;19.60;99.90;;;;;;4717709;30;20110;-90
2022/08/04 05:20:11;;;;;;;24.02;8.65;;;19.60;99.90;;;;;;4718285;30;20135;-90
2022/08/04 05:22:44;;;;;;;22.95;9.63;;;19.60;99.90;;;;;;4703039;30;20060;-90
2022/08/04 05:25:19;;;;;;;29.48;9.75;;;19.80;99.90;;;;;;4712889;30;20053;-89
2022/08/04 05:28:00;;;;;;;27.17;9.65;;;19.90;99.90;;;;;;4718362;30;20131;-90
2022/08/04 05:30:29;;;;;;;22.27;9.10;;;20.10;99.90;;;;;;4717490;30;20067;-89
2022/08/04 05:33:03;;;;;;;19.77;8.52;;;20.20;99.90;;;;;;4714933;30;20498;-88
2022/08/04 05:35:33;;;;;;;26.48;9.73;;;20.30;99.90;;;;;;4703611;30;20060;-89
2022/08/04 05:38:04;;;;;;;22.45;8.02;;;20.40;99.90;;;;;;4688338;30;20053;-91
2022/08/04 05:40:30;;;;;;;21.23;8.73;;;20.50;99.90;;;;;;4686318;30;20049;-92
2022/08/04 05:42:57;;;;;;;20.70;8.68;;;20.60;99.90;;;;;;4686408;30;20053;-92
2022/08/04 05:45:27;;;;;;;29.33;9.45;;;20.70;99.90;;;;;;4685836;30;20053;-92
2022/08/04 05:47:54;;;;;;;18.42;8.48;;;20.80;99.90;;;;;;4686209;30;20115;-92
2022/08/04 05:50:20;;;;;;;19.63;7.88;;;20.90;99.90;;;;;;4686171;30;20144;-91
2022/08/04 05:52:48;;;;;;;22.83;7.85;;;21.00;99.90;;;;;;4685626;30;20045;-90
2022/08/04 05:55:15;;;;;;;21.88;7.65;;;21.10;99.90;;;;;;4685984;30;20049;-91
2022/08/04 05:57:42;;;;;;;15.68;7.05;;;21.20;99.90;;;;;;4685848;30;20052;-90
2022/08/04 06:00:09;;;;;;;21.80;7.00;;;21.30;99.90;;;;;;4686063;30;20052;-92
2022/08/04 06:02:37;;;;;;;14.75;6.82;;;21.40;99.90;;;;;;4689360;30;20061;-92
2022/08/04 06:05:06;;;;;;;17.73;7.00;;;21.50;99.90;;;;;;4717840;30;20049;-92
2022/08/04 06:07:32;;;;;;;19.65;7.53;;;21.60;99.90;;;;;;4702665;30;20123;-92
2022/08/04 06:10:05;;;;;;;18.25;7.00;;;21.70;99.90;;;;;;4717481;30;20439;-91
2022/08/04 06:12:41;;;;;;;16.15;6.15;;;21.80;99.90;;;;;;4702725;30;20524;-91
2022/08/04 06:15:10;;;;;;;23.13;6.30;;;21.90;99.90;;;;;;4702867;30;20053;-90
2022/08/04 06:17:41;;;;;;;23.67;6.63;;;22.00;99.90;;;;;;4703078;30;20129;-91
2022/08/04 06:20:11;;;;;;;18.10;6.57;;;22.20;99.90;;;;;;4702826;30;20048;-92
2022/08/04 06:22:51;;;;;;;17.58;6.18;;;22.30;99.90;;;;;;4702804;30;20052;-91
2022/08/04 06:25:20;;;;;;;21.55;6.60;;;22.50;99.90;;;;;;4703243;30;20059;-91
2022/08/04 06:27:49;;;;;;;21.17;6.30;;;22.70;99.90;;;;;;4717129;30;20048;-91
2022/08/04 06:30:18;;;;;;;23.85;6.32;;;22.90;99.90;;;;;;4702885;30;20060;-91
2022/08/04 06:32:46;;;;;;;18.55;6.10;;;23.10;99.90;;;;;;4727241;30;20059;-90
2022/08/04 06:35:16;;;;;;;23.70;5.82;;;23.20;99.90;;;;;;4734201;30;20048;-90
2022/08/04 06:37:44;;;;;;;16.23;5.25;;;23.30;99.90;;;;;;4719702;30;20063;-90
2022/08/04 06:40:12;;;;;;;17.20;4.88;;;23.30;99.90;;;;;;4733962;30;20131;-89
2022/08/04 06:42:44;;;;;;;14.93;5.55;;;23.40;99.90;;;;;;4718047;30;20056;-89
2022/08/04 06:45:11;;;;;;;18.35;5.53;;;23.50;99.90;;;;;;4733949;30;20071;-89
2022/08/04 06:47:38;;;;;;;16.23;5.53;;;23.60;99.90;;;;;;4719565;30;20133;-89
2022/08/04 06:50:07;;;;;;;16.58;5.35;;;23.60;99.90;;;;;;4719455;30;20634;-90
2022/08/04 06:52:36;;;;;;;18.42;5.05;;;23.70;99.90;;;;;;4718081;30;20063;-89
2022/08/04 06:55:03;;;;;;;13.40;4.70;;;23.80;99.90;;;;;;4718894;30;20055;-89
2022/08/04 06:57:30;;;;;;;16.50;4.88;;;23.40;99.90;;;;;;4719357;30;20060;-90
2022/08/04 07:00:07;;;;;;;21.38;4.93;;;23.80;99.90;;;;;;4719163;30;20138;-90
2022/08/04 07:02:45;;;;;;;13.07;4.43;;;23.80;99.90;;;;;;4719811;30;20139;-89
2022/08/04 07:05:11;;;;;;;13.15;4.25;;;23.90;99.90;;;;;;4719366;30;20079;-91
2022/08/04 07:07:38;;;;;;;15.85;4.40;;;23.90;99.90;;;;;;4719805;30;20106;-91
2022/08/04 07:10:17;;;;;;;13.25;4.40;;;24.00;99.90;;;;;;4719258;30;20438;-89
2022/08/04 07:12:44;;;;;;;14.68;3.60;;;24.10;99.90;;;;;;4719546;30;20071;-89
2022/08/04 07:15:10;;;;;;;10.65;3.35;;;24.20;99.90;;;;;;4718571;30;20161;-88
2022/08/04 07:17:39;;;;;;;19.63;3.80;;;24.30;99.90;;;;;;4718327;30;20059;-88
2022/08/04 07:20:05;;;;;;;14.90;3.72;;;24.50;99.90;;;;;;4718239;30;20059;-88
2022/08/04 07:22:39;;;;;;;18.30;3.78;;;24.70;99.90;;;;;;4718577;30;20051;-89
2022/08/04 07:25:11;;;;;;;14.18;3.38;;;24.80;99.90;;;;;;4732975;30;20099;-88
2022/08/04 07:27:43;;;;;;;;;;;25.20;99.90;;;;;;4719753;30;20510;-92
2022/08/04 07:30:10;;;;;;;15.30;3.70;;;25.30;99.90;;;;;;4719776;30;19934;-91
2022/08/04 07:32:37;;;;;;;13.50;3.08;;;25.40;99.90;;;;;;4719554;30;20102;-91
2022/08/04 07:35:06;;;;;;;15.63;3.30;;;25.40;99.90;;;;;;4734074;30;20048;-91
2022/08/04 07:37:32;;;;;;;14.40;3.22;;;25.60;99.90;;;;;;4719244;30;20063;-89
2022/08/04 07:40:00;;;;;;;13.27;2.83;;;25.70;99.90;;;;;;4719204;30;20419;-91
2022/08/04 07:42:26;;;;;;;11.18;2.63;;;25.90;99.90;;;;;;4733665;30;20052;-90
2022/08/04 07:44:52;;;;;;;10.57;2.92;;;26.00;99.90;;;;;;4719344;30;20485;-90
2022/08/04 07:47:23;;;;;;;11.43;2.90;;;26.00;99.90;;;;;;4733646;30;20053;-89
2022/08/04 07:49:53;;;;;;;12.82;2.88;;;25.90;99.90;;;;;;4719340;30;20048;-88
2022/08/04 07:52:20;;;;;;;15.07;2.58;;;25.80;99.90;;;;;;4718667;30;20165;-89
2022/08/04 07:54:49;;;;;;;10.23;3.08;;;25.80;99.90;;;;;;4737296;30;20075;-88
2022/08/04 07:57:17;;;;;;;10.32;2.47;;;25.90;99.90;;;;;;4722754;30;20172;-89
2022/08/04 07:59:54;;;;;;;12.48;2.55;;;26.00;99.90;;;;;;4721973;30;20049;-90
2022/08/04 08:02:22;;;;;;;14.95;3.17;;;26.10;99.90;;;;;;4736137;30;20409;-89
2022/08/04 08:04:48;;;;;;;12.70;2.50;;;26.20;99.90;;;;;;4737504;30;20056;-89
2022/08/04 08:07:25;;;;;;;11.70;2.67;;;26.30;99.90;;;;;;4736728;30;20064;-89
2022/08/04 08:09:51;;;;;;;11.40;2.40;;;26.40;99.90;;;;;;4737248;30;20052;-89
2022/08/04 08:12:17;;;;;;;8.50;2.40;;;26.60;99.90;;;;;;4735993;30;20222;-88
2022/08/04 08:14:44;;;;;;;15.25;2.72;;;26.70;99.90;;;;;;4722085;30;20135;-89
2022/08/04 08:17:10;;;;;;;14.57;2.75;;;26.80;99.90;;;;;;4736659;30;20059;-88
2022/08/04 08:19:37;;;;;;;15.20;2.35;;;26.90;99.90;;;;;;4734239;30;20048;-88
2022/08/04 08:22:03;;;;;;;12.55;2.70;;;27.00;99.90;;;;;;4719086;30;20052;-90
2022/08/04 08:24:30;;;;;;;11.05;2.55;;;27.10;99.90;;;;;;4718838;30;20130;-89
2022/08/04 08:27:03;;;;;;;9.85;2.60;;;27.20;99.90;;;;;;4719108;30;20491;-89
2022/08/04 08:29:29;;;;;;;9.70;2.45;;;27.20;99.90;;;;;;4718594;30;20044;-89
2022/08/04 08:31:55;;;;;;;16.55;2.58;;;27.10;99.90;;;;;;4718848;30;20139;-89
2022/08/04 08:34:21;;;;;;;14.80;2.65;;;27.10;99.90;;;;;;4718197;30;20048;-90
2022/08/04 08:37:04;;;;;;;13.68;2.78;;;27.10;99.90;;;;;;4704687;30;20057;-89
2022/08/04 08:39:41;;;;;;;10.32;2.25;;;27.10;99.90;;;;;;4719208;30;20052;-89
2022/08/04 08:42:36;;;;;;;16.30;2.83;;;26.90;99.90;;;;;;4718290;30;20056;-89
2022/08/04 08:45:37;;;;;;;8.75;3.13;;;26.90;99.90;;;;;;4719129;30;20049;-89
2022/08/04 08:48:44;;;;;;;10.40;2.92;;;26.90;99.90;;;;;;4719045;30;20108;-89
2022/08/04 08:51:33;;;;;;;15.63;3.63;;;27.00;99.90;;;;;;4718876;30;20058;-89
2022/08/04 08:54:26;;;;;;;13.32;3.63;;;27.10;99.90;;;;;;4718790;30;20052;-89
2022/08/04 08:57:12;;;;;;;12.57;3.83;;;27.10;99.90;;;;;;4718363;30;20059;-89
2022/08/04 08:59:56;;;;;;;11.52;3.65;;;27.30;99.90;;;;;;4735785;30;20059;-89
2022/08/04 09:03:00;;;;;;;11.40;3.85;;;27.30;99.90;;;;;;4735161;30;20097;-88
2022/08/04 09:05:53;;;;;;;14.85;3.75;;;27.20;99.90;;;;;;4717047;30;20088;-89
2022/08/04 09:08:54;;;;;;;14.38;3.30;;;27.20;99.90;;;;;;4718528;30;20099;-89
2022/08/04 09:11:39;;;;;;;11.65;3.30;;;27.10;99.90;;;;;;4718062;30;20410;-90
2022/08/04 09:14:22;;;;;;;14.10;4.00;;;27.10;99.90;;;;;;4718296;30;20048;-92
2022/08/04 09:17:04;;;;;;;9.20;3.47;;;27.10;99.90;;;;;;4718750;30;20056;-90
2022/08/04 09:19:44;;;;;;;18.48;4.07;;;27.10;99.90;;;;;;4717951;30;20098;-89
2022/08/04 09:22:21;;;;;;;9.73;3.90;;;27.20;99.90;;;;;;4717413;30;20056;-89
2022/08/04 09:25:24;;;;;;;9.95;3.97;;;27.20;99.90;;;;;;4716062;30;20052;-89
2022/08/04 09:27:56;;;;;;;12.02;4.15;;;27.20;99.90;;;;;;4718380;30;20061;-90
2022/08/04 09:30:42;;;;;;;9.93;4.35;;;27.30;99.90;;;;;;4717403;30;20057;-88
2022/08/04 09:33:27;;;;;;;11.38;3.70;;;27.30;99.90;;;;;;4717811;30;20477;-90
2022/08/04 09:36:03;;;;;;;12.77;4.05;;;27.40;99.90;;;;;;4703975;30;20586;-89
2022/08/04 09:39:01;;;;;;;14.70;4.18;;;27.50;99.90;;;;;;4718175;30;20052;-89
2022/08/04 09:41:46;;;;;;;17.88;5.40;;;27.50;99.90;;;;;;4691973;30;20056;-92
2022/08/04 09:44:59;;;;;;;12.00;4.30;;;27.50;99.90;;;;;;4732673;30;20119;-92
2022/08/04 09:47:36;;;;;;;12.98;4.82;;;27.50;99.90;;;;;;4717663;30;20207;-91
2022/08/04 09:50:22;;;;;;;11.25;3.40;;;27.50;99.90;;;;;;4717845;30;20064;-91
2022/08/04 09:53:16;;;;;;;12.75;3.58;;;27.50;99.90;;;;;;4708137;30;20340;-89
2022/08/04 09:55:46;;;;;;;10.82;3.15;;;27.50;99.90;;;;;;4717357;30;20148;-90
2022/08/04 09:58:32;;;;;;;14.40;2.50;;;27.50;99.90;;;;;;4717083;30;20572;-89
2022/08/04 10:01:10;;;;;;;8.98;3.03;;;27.50;99.90;;;;;;4717453;30;20053;-89
2022/08/04 10:03:43;;;;;;;16.92;3.42;;;27.40;99.90;;;;;;4710805;30;20076;-89
2022/08/04 10:06:28;;;;;;;10.25;2.80;;;27.30;99.90;;;;;;4702670;30;20107;-88
2022/08/04 10:09:11;;;;;;;8.05;2.63;;;27.30;99.90;;;;;;4716431;30;20738;-89
2022/08/04 10:11:49;;;;;;;10.55;3.22;;;27.40;99.90;;;;;;4722485;30;20052;-88
2022/08/04 10:14:39;;;;;;;9.77;3.17;;;27.50;99.90;;;;;;4702228;30;20069;-88
2022/08/04 10:17:22;;;;;;;14.50;2.67;;;27.60;99.90;;;;;;4698359;30;20140;-90
2022/08/04 10:20:08;;;;;;;20.15;3.42;;;27.70;99.90;;;;;;4699954;30;20056;-89
2022/08/04 10:22:40;;;;;;;11.05;2.45;;;27.60;99.90;;;;;;4699935;30;20115;-89
2022/08/04 10:25:40;;;;;;;8.98;2.30;;;27.70;99.90;;;;;;4699499;30;20053;-90
2022/08/04 10:28:24;;;;;;;10.48;2.30;;;27.70;99.90;;;;;;4699462;30;20057;-88
2022/08/04 10:30:58;;;;;;;8.60;2.30;;;27.70;99.90;;;;;;4699723;30;20057;-88
2022/08/04 10:33:31;;;;;;;9.05;2.13;;;27.70;99.90;;;;;;4699095;30;20052;-89
2022/08/04 10:36:04;;;;;;;11.35;1.80;;;27.80;99.90;;;;;;4699263;30;20672;-89
2022/08/04 10:38:36;;;;;;;12.45;1.98;;;27.80;99.90;;;;;;4699472;30;20479;-89
2022/08/04 10:41:17;;;;;;;7.95;1.80;;;27.80;99.90;;;;;;4699423;30;20045;-89
2022/08/04 10:44:02;;;;;;;13.27;1.88;;;27.80;99.90;;;;;;4699113;30;20057;-88
2022/08/04 10:46:48;;;;;;;14.20;2.40;;;27.90;99.90;;;;;;4699055;30;20155;-89
2022/08/04 10:49:38;;;;;;;10.13;1.55;;;28.00;99.90;;;;;;4699504;30;20491;-89
2022/08/04 10:52:11;;;;;;;12.32;1.63;;;28.00;99.90;;;;;;4699209;30;20060;-89
2022/08/04 10:54:49;;;;;;;14.15;1.55;;;27.80;99.90;;;;;;4699631;30;20076;-90
2022/08/04 10:57:30;;;;;;;10.70;2.08;;;27.70;99.90;;;;;;4699360;30;20053;-89
2022/08/04 11:00:03;;;;;;;12.60;1.50;;;27.60;99.90;;;;;;4699148;30;20523;-88
2022/08/04 11:02:36;;;;;;;14.85;1.80;;;27.60;99.90;;;;;;4698691;30;20119;-87
2022/08/04 11:05:16;;;;;;;11.50;2.03;;;27.70;99.90;;;;;;4699160;30;20156;-88
2022/08/04 11:07:46;;;;;;;9.18;2.13;;;27.70;99.90;;;;;;4698793;30;20503;-86
2022/08/04 11:10:13;;;;;;;13.07;2.55;;;27.70;99.90;;;;;;4698333;30;20053;-88
2022/08/04 11:12:41;;;;;;;11.88;1.85;;;27.70;99.90;;;;;;4698690;30;20053;-88
2022/08/04 11:15:09;;;;;;;11.88;1.92;;;27.70;99.90;;;;;;4698185;30;20049;-88
2022/08/04 11:17:49;;;;;;;8.63;1.63;;;27.80;99.90;;;;;;4698470;30;20781;-88
2022/08/04 11:20:27;;;;;;;12.52;1.80;;;27.90;99.90;;;;;;4698823;30;20085;-88
2022/08/04 11:22:59;;;;;;;9.20;1.80;;;28.00;99.90;;;;;;4699352;30;20136;-88
2022/08/04 11:25:50;;;;;;;11.68;1.73;;;28.00;99.90;;;;;;4698514;30;20159;-88
2022/08/04 11:28:28;;;;;;;5.35;1.10;;;28.10;99.90;;;;;;4700479;30;20144;-87
2022/08/04 11:31:32;;;;;;;9.35;1.40;;;28.00;99.90;;;;;;4702076;30;20075;-88
2022/08/04 11:34:21;;;;;;;7.00;1.50;;;28.00;99.90;;;;;;4701861;30;20588;-88
2022/08/04 11:37:16;;;;;;;7.32;1.20;;;27.80;99.90;;;;;;4702403;30;20138;-88
2022/08/04 11:40:01;;;;;;;7.82;1.30;;;27.80;99.90;;;;;;4702420;30;20116;-88
2022/08/04 11:42:59;;;;;;;11.73;1.50;;;27.90;99.90;;;;;;4702232;30;20088;-89
2022/08/04 11:46:02;;;;;;;6.93;1.20;;;28.00;99.90;;;;;;4684638;30;20141;-92
2022/08/04 11:49:44;;;;;;;;;;;;;;;;;;;;;
2022/08/04 11:52:20;;;;;;;8.05;1.05;;;28.10;99.90;;;;;;4700021;30;20114;-90
2022/08/04 11:55:26;;;;;;;5.72;0.85;;;28.20;99.90;;;;;;4719343;30;20087;-87
2022/08/04 11:57:58;;;;;;;4.10;1.10;;;28.30;99.90;;;;;;4733665;30;20057;-90
2022/08/04 12:00:42;;;;;;;5.53;1.00;;;28.20;99.90;;;;;;4733903;30;20053;-90
2022/08/04 12:03:54;;;;;;;3.58;1.10;;;28.00;99.90;;;;;;4688006;30;20049;-91
2022/08/04 12:06:56;;;;;;;3.50;0.95;;;27.90;99.90;;;;;;4718518;30;20071;-90
2022/08/04 12:09:54;;;;;;;8.73;1.05;;;27.70;99.90;;;;;;4703758;30;20053;-91
2022/08/04 12:12:49;;;;;;;;;;;;;;;;;;;;;
2022/08/04 12:15:29;;;;;;;4.85;0.80;;;27.70;99.90;;;;;;4718825;30;20057;-90
2022/08/04 12:18:24;;;;;;;8.77;1.23;;;27.70;99.90;;;;;;4734481;30;20056;-90
2022/08/04 12:21:59;;;;;;;7.65;0.90;;;27.70;99.90;;;;;;4718786;30;20053;-90
2022/08/04 12:24:27;;;;;;;5.35;0.90;;;27.50;99.90;;;;;;4714797;30;20099;-90
2022/08/04 12:27:26;;;;;;;2.63;0.70;;;27.30;99.90;;;;;;4733222;30;20052;-90
2022/08/04 12:30:08;;;;;;;;;;;;;;;;;;;;;
2022/08/04 12:32:59;;;;;;;2.85;0.77;;;27.20;99.90;;;;;;4733337;30;20059;-88
2022/08/04 12:35:46;;;;;;;4.32;0.70;;;27.10;99.90;;;;;;4718839;30;20138;-91
2022/08/04 12:38:16;;;;;;;4.65;1.00;;;27.10;99.90;;;;;;4733833;30;20079;-90
2022/08/04 12:41:07;;;;;;;;;;;;;;;;;;;;;
2022/08/04 12:44:11;;;;;;;5.18;0.82;;;26.90;99.90;;;;;;4733515;30;20492;-90
2022/08/04 12:54:11;;;;;;;4.88;1.10;;;26.50;99.90;;;;;;4680172;30;20060;-91
2022/08/04 12:57:08;;;;;;;4.65;0.80;;;26.60;99.90;;;;;;4718475;30;20052;-90
2022/08/04 13:00:00;;;;;;;3.42;0.93;;;26.70;99.90;;;;;;4687497;30;20510;-91
2022/08/04 13:02:42;;;;;;;5.30;0.70;;;26.80;99.90;;;;;;4702613;30;20069;-90
2022/08/04 13:09:13;;;;;;;;;;;;;;;;;;;;;
2022/08/04 13:12:04;;;;;;;2.92;0.65;;;27.10;99.90;;;;;;4683382;30;20064;-90
2022/08/04 13:15:40;;;;;;;5.15;0.75;;;27.10;99.90;;;;;;4733088;30;20060;-89
2022/08/04 13:38:23;;;;;;;4.38;0.80;;;27.60;99.90;;;;;;4793374;24;20071;-89
2022/08/04 13:41:30;;;;;;;;;;;;;;;;;;;;;
2022/08/04 13:48:55;;;;;;;3.63;0.77;;;27.90;99.90;;;;;;4664077;30;20060;-91
2022/08/04 13:51:25;;;;;;;5.75;0.63;;;27.80;99.90;;;;;;4615083;30;20552;-92
2022/08/04 13:53:56;;;;;;;3.80;0.85;;;27.70;99.90;;;;;;4697584;30;20231;-92
2022/08/04 13:56:33;;;;;;;3.20;0.60;;;27.70;99.90;;;;;;4752234;30;20143;-91
2022/08/04 13:59:01;;;;;;;3.47;0.63;;;27.60;99.90;;;;;;4752698;30;20056;-90
2022/08/04 14:01:31;;;;;;;4.70;0.75;;;27.60;99.90;;;;;;4752357;30;20500;-91
2022/08/04 14:04:15;;;;;;;3.58;0.90;;;27.50;99.90;;;;;;4753316;30;20094;-92
2022/08/04 14:07:07;;;;;;;4.55;0.88;;;27.30;99.90;;;;;;4752206;30;20047;-92
2022/08/04 14:09:36;;;;;;;5.90;0.68;;;27.30;99.90;;;;;;4738053;30;20086;-92
2022/08/04 14:12:07;;;;;;;5.35;1.13;;;27.30;99.90;;;;;;4750637;30;20055;-92
2022/08/04 14:14:49;;;;;;;4.45;0.90;;;27.40;99.90;;;;;;4752341;30;20051;-92
2022/08/04 14:17:25;;;;;;;;;;;27.50;99.90;;;;;;4752728;30;20059;-91
2022/08/04 14:20:04;;;;;;;5.95;0.80;;;27.50;99.90;;;;;;4744944;30;19988;-93
2022/08/04 14:22:35;;;;;;;5.18;0.80;;;27.60;99.90;;;;;;4721150;30;20110;-92
2022/08/04 14:25:14;;;;;;;7.20;1.60;;;27.50;99.90;;;;;;4720451;30;20485;-91
2022/08/04 14:27:43;;;;;;;9.70;1.63;;;27.40;99.90;;;;;;4720204;30;20475;-93
2022/08/04 14:30:25;;;;;;;9.57;2.22;;;27.30;99.90;;;;;;4719731;30;20051;-89
2022/08/04 14:33:09;;;;;;;13.63;2.53;;;27.30;99.90;;;;;;4719249;30;20147;-91
2022/08/04 14:35:43;;;;;;;15.60;3.42;;;27.20;99.90;;;;;;4720568;30;20505;-90
2022/08/04 14:38:59;;;;;;;10.35;2.17;;;27.20;99.90;;;;;;4719168;30;20071;-89
2022/08/04 14:41:32;;;;;;;10.68;2.63;;;26.60;99.90;;;;;;4719424;30;20049;-92
2022/08/04 14:44:07;;;;;;;12.27;2.90;;;27.10;99.90;;;;;;4734531;30;20052;-91
2022/08/04 14:46:54;;;;;;;10.13;3.15;;;26.90;99.90;;;;;;4736173;30;20060;-90
2022/08/04 14:49:26;;;;;;;12.05;2.95;;;26.60;99.90;;;;;;4751035;30;20051;-90
2022/08/04 14:51:58;;;;;;;9.63;2.47;;;26.50;99.90;;;;;;4755195;30;20051;-88
2022/08/04 14:54:42;;;;;;;7.85;2.13;;;26.30;99.90;;;;;;4754794;30;20505;-92
2022/08/04 14:57:09;;;;;;;10.02;1.85;;;26.10;99.90;;;;;;4754869;30;20043;-90
2022/08/04 14:59:51;;;;;;;6.80;1.75;;;25.90;99.90;;;;;;4754894;30;20526;-91
2022/08/04 15:02:16;;;;;;;3.55;1.13;;;25.80;99.90;;;;;;4754758;30;20075;-91
2022/08/04 15:04:45;;;;;;;7.55;1.27;;;25.80;99.90;;;;;;4758240;30;20058;-91
2022/08/04 15:07:11;;;;;;;5.80;1.35;;;25.60;99.90;;;;;;4758685;30;20669;-90
2022/08/04 15:09:37;;;;;;;5.20;1.10;;;25.60;99.90;;;;;;4758162;30;20782;-91
2022/08/04 15:12:06;;;;;;;3.72;0.90;;;25.50;99.90;;;;;;4758633;30;20047;-92
2022/08/04 15:14:35;;;;;;;4.50;0.98;;;25.40;99.90;;;;;;4759003;30;20085;-90
2022/08/04 15:17:05;;;;;;;5.28;1.27;;;25.50;99.90;;;;;;4757939;30;20460;-91
2022/08/04 15:19:31;;;;;;;5.82;1.80;;;25.50;99.90;;;;;;4758681;30;20112;-91
2022/08/04 15:21:57;;;;;;;7.03;1.90;;;25.50;99.90;;;;;;4758226;30;20488;-93
2022/08/04 15:24:23;;;;;;;6.97;2.22;;;25.50;99.90;;;;;;4758123;30;20108;-91
2022/08/04 15:26:55;;;;;;;5.32;1.65;;;25.40;99.90;;;;;;4758345;30;20088;-92